KLM695 EHAM-CYYZ
Flight info
| Callsign | KLM695 |
|---|---|
| Flight time | N/A |
| Altitude | 36000 |
| Route | BERGI L60 OTBED DCT ABLUC DCT OZRAT DCT WETFI DCT ASKUP DCT REVNU DCT ETARI/M082F370 DCT 5530N02000W 5530N03000W 55N040W 54N050W DCT NEEKO/N0475F380 N622E TAFFY/N0484F400 DCT VILRO DCT SAVEX Q806 TUKIR IMEBA9 |
| Aircraft | MD11/H-SDE1E2E3FGHIJ2J3J4J5M1RWXY/LB1D1 |
Departure
| Time | N/A |
|---|---|
| Airport | Amsterdam Airport Schiphol (EHAM) |
Arrival
| Time | 2026-05-03 21:33 |
|---|---|
| Airport | Toronto Pearson International Airport (CYYZ) |
| Time | Latitude | Longitude | Altitude | Speed | Heading |
|---|---|---|---|---|---|
| 2026-05-03 20:15 | 52.25581 | -56.21022 | 35930 ft | 399 kts | 240° |
| 2026-05-03 20:15 | 52.22456 | -56.29913 | 35940 ft | 399 kts | 240° |
| 2026-05-03 20:16 | 52.19680 | -56.37787 | 35930 ft | 399 kts | 240° |
| 2026-05-03 20:16 | 52.16911 | -56.45617 | 36193 ft | 400 kts | 239° |
| 2026-05-03 20:16 | 52.15529 | -56.49515 | 36438 ft | 402 kts | 239° |
| 2026-05-03 20:17 | 52.14113 | -56.53502 | 36697 ft | 405 kts | 239° |
| 2026-05-03 20:17 | 52.12691 | -56.57478 | 36933 ft | 407 kts | 239° |
| 2026-05-03 20:17 | 52.11262 | -56.61419 | 37176 ft | 409 kts | 239° |
| 2026-05-03 20:17 | 52.09809 | -56.65424 | 37421 ft | 411 kts | 239° |
| 2026-05-03 20:18 | 52.08354 | -56.69449 | 37640 ft | 413 kts | 238° |
| 2026-05-03 20:18 | 52.06896 | -56.73494 | 37879 ft | 415 kts | 239° |
| 2026-05-03 20:18 | 52.05455 | -56.77500 | 37923 ft | 416 kts | 239° |
| 2026-05-03 20:19 | 52.02521 | -56.85659 | 37943 ft | 416 kts | 238° |
| 2026-05-03 20:19 | 51.99609 | -56.93737 | 37952 ft | 415 kts | 238° |
| 2026-05-03 20:20 | 51.90040 | -57.20100 | 37947 ft | 415 kts | 238° |
| 2026-05-03 20:20 | 51.78209 | -57.52317 | 37932 ft | 416 kts | 238° |
| 2026-05-03 20:21 | 51.66254 | -57.84274 | 37927 ft | 418 kts | 237° |
| 2026-05-03 20:21 | 51.54235 | -58.16137 | 37931 ft | 419 kts | 237° |
| 2026-05-03 20:22 | 51.41997 | -58.48225 | 37927 ft | 419 kts | 236° |
| 2026-05-03 20:22 | 51.29755 | -58.79930 | 37926 ft | 420 kts | 236° |
| 2026-05-03 20:23 | 51.17329 | -59.11489 | 37918 ft | 422 kts | 236° |
| 2026-05-03 20:23 | 51.04803 | -59.43142 | 37917 ft | 422 kts | 236° |
| 2026-05-03 20:24 | 50.92265 | -59.74436 | 37902 ft | 421 kts | 235° |
| 2026-05-03 20:24 | 50.79530 | -60.05712 | 37899 ft | 421 kts | 235° |
| 2026-05-03 20:25 | 50.66829 | -60.36577 | 37877 ft | 420 kts | 235° |
| 2026-05-03 20:25 | 50.54018 | -60.67427 | 37869 ft | 420 kts | 234° |
| 2026-05-03 20:26 | 50.41181 | -60.97974 | 37873 ft | 420 kts | 234° |
| 2026-05-03 20:26 | 50.28106 | -61.28529 | 37874 ft | 420 kts | 234° |
| 2026-05-03 20:27 | 50.15111 | -61.58742 | 37865 ft | 420 kts | 233° |
| 2026-05-03 20:27 | 50.01978 | -61.88929 | 37856 ft | 420 kts | 233° |
| 2026-05-03 20:28 | 49.88816 | -62.18773 | 37852 ft | 421 kts | 232° |
| 2026-05-03 20:28 | 49.75440 | -62.48695 | 37845 ft | 421 kts | 232° |
| 2026-05-03 20:29 | 49.62094 | -62.78346 | 37834 ft | 419 kts | 232° |
| 2026-05-03 20:29 | 49.48734 | -63.07697 | 37802 ft | 418 kts | 231° |
| 2026-05-03 20:30 | 49.35226 | -63.36876 | 37806 ft | 422 kts | 231° |
| 2026-05-03 20:30 | 49.21571 | -63.66215 | 37801 ft | 422 kts | 231° |
| 2026-05-03 20:31 | 49.07855 | -63.95369 | 37808 ft | 423 kts | 230° |
| 2026-05-03 20:31 | 48.93992 | -64.24497 | 37820 ft | 428 kts | 230° |
| 2026-05-03 20:32 | 48.79809 | -64.53842 | 37792 ft | 430 kts | 230° |
| 2026-05-03 20:32 | 48.65647 | -64.82977 | 37796 ft | 432 kts | 230° |
| 2026-05-03 20:33 | 48.51209 | -65.12355 | 37770 ft | 436 kts | 230° |
| 2026-05-03 20:33 | 48.36647 | -65.41513 | 37774 ft | 436 kts | 229° |
| 2026-05-03 20:34 | 48.22049 | -65.70574 | 37759 ft | 438 kts | 229° |
| 2026-05-03 20:34 | 48.07300 | -65.99630 | 37745 ft | 440 kts | 229° |
| 2026-05-03 20:35 | 47.92325 | -66.28749 | 37760 ft | 440 kts | 229° |
| 2026-05-03 20:35 | 47.77388 | -66.57462 | 37756 ft | 441 kts | 229° |
| 2026-05-03 20:36 | 47.62277 | -66.86289 | 37745 ft | 440 kts | 229° |
| 2026-05-03 20:36 | 47.47212 | -67.14729 | 37765 ft | 441 kts | 229° |
| 2026-05-03 20:37 | 47.32658 | -67.43688 | 37743 ft | 447 kts | 242° |
| 2026-05-03 20:37 | 47.22928 | -67.77665 | 37749 ft | 449 kts | 243° |
| 2026-05-03 20:38 | 47.14991 | -68.04471 | 37737 ft | 449 kts | 243° |
| 2026-05-03 20:38 | 47.13737 | -68.08680 | 37867 ft | 450 kts | 243° |
| 2026-05-03 20:38 | 47.12902 | -68.11482 | 38115 ft | 449 kts | 244° |
| 2026-05-03 20:38 | 47.11236 | -68.17058 | 38540 ft | 449 kts | 244° |
| 2026-05-03 20:39 | 47.10400 | -68.19854 | 38698 ft | 449 kts | 244° |
| 2026-05-03 20:39 | 47.09145 | -68.24041 | 38942 ft | 449 kts | 244° |
| 2026-05-03 20:39 | 47.07470 | -68.29621 | 39263 ft | 449 kts | 244° |
| 2026-05-03 20:39 | 47.06629 | -68.32415 | 39424 ft | 449 kts | 244° |
| 2026-05-03 20:40 | 47.05361 | -68.36626 | 39641 ft | 449 kts | 244° |
| 2026-05-03 20:40 | 47.02831 | -68.45005 | 39750 ft | 449 kts | 243° |
| 2026-05-03 20:41 | 47.00290 | -68.53340 | 39754 ft | 449 kts | 243° |
| 2026-05-03 20:41 | 46.97710 | -68.61694 | 39755 ft | 449 kts | 243° |
| 2026-05-03 20:42 | 46.95161 | -68.69997 | 39755 ft | 449 kts | 243° |
| 2026-05-03 20:42 | 46.92599 | -68.78363 | 39758 ft | 449 kts | 243° |
| 2026-05-03 20:43 | 46.90035 | -68.86717 | 39752 ft | 449 kts | 243° |
| 2026-05-03 20:43 | 46.87475 | -68.95030 | 39752 ft | 449 kts | 243° |
| 2026-05-03 20:44 | 46.84910 | -69.03329 | 39752 ft | 449 kts | 243° |
| 2026-05-03 20:44 | 46.82324 | -69.11668 | 39752 ft | 449 kts | 243° |
| 2026-05-03 20:45 | 46.79744 | -69.19960 | 39757 ft | 449 kts | 243° |
| 2026-05-03 20:45 | 46.77157 | -69.28248 | 39748 ft | 450 kts | 243° |
| 2026-05-03 20:46 | 46.74548 | -69.36578 | 39743 ft | 451 kts | 243° |
| 2026-05-03 20:46 | 46.71949 | -69.44852 | 39742 ft | 451 kts | 243° |
| 2026-05-03 20:47 | 46.69326 | -69.53172 | 39742 ft | 451 kts | 243° |
| 2026-05-03 20:47 | 46.60891 | -69.79521 | 39754 ft | 451 kts | 243° |
| 2026-05-03 20:48 | 46.50271 | -70.12588 | 39758 ft | 453 kts | 243° |
| 2026-05-03 20:48 | 46.39509 | -70.45673 | 39769 ft | 453 kts | 243° |
| 2026-05-03 20:49 | 46.28653 | -70.78485 | 39789 ft | 453 kts | 243° |
| 2026-05-03 20:49 | 46.17690 | -71.11258 | 39804 ft | 452 kts | 243° |
| 2026-05-03 20:50 | 46.06698 | -71.43794 | 39810 ft | 453 kts | 243° |
| 2026-05-03 20:50 | 45.95525 | -71.76455 | 39826 ft | 454 kts | 243° |
| 2026-05-03 20:51 | 45.84265 | -72.08755 | 39824 ft | 454 kts | 243° |
| 2026-05-03 20:51 | 45.73021 | -72.40833 | 39849 ft | 453 kts | 243° |
| 2026-05-03 20:52 | 45.61685 | -72.73247 | 39827 ft | 455 kts | 250° |
| 2026-05-03 20:52 | 45.60288 | -72.91249 | 39834 ft | 457 kts | 266° |
| 2026-05-03 20:52 | 45.59530 | -73.09215 | 39835 ft | 457 kts | 264° |
| 2026-05-03 20:53 | 45.57522 | -73.45577 | 39817 ft | 458 kts | 264° |
| 2026-05-03 20:53 | 45.55424 | -73.81625 | 39814 ft | 458 kts | 264° |
| 2026-05-03 20:54 | 45.53114 | -74.18054 | 39829 ft | 458 kts | 263° |
| 2026-05-03 20:54 | 45.47700 | -74.71757 | 39834 ft | 458 kts | 258° |
| 2026-05-03 20:55 | 45.42677 | -75.07222 | 39831 ft | 458 kts | 258° |
| 2026-05-03 20:55 | 45.37808 | -75.40573 | 39809 ft | 456 kts | 258° |
| 2026-05-03 20:56 | 45.36503 | -75.49441 | 39810 ft | 456 kts | 258° |
| 2026-05-03 20:56 | 45.35193 | -75.58294 | 39808 ft | 456 kts | 258° |
| 2026-05-03 20:57 | 45.33886 | -75.67073 | 39804 ft | 455 kts | 258° |
| 2026-05-03 20:57 | 45.32567 | -75.75884 | 39804 ft | 455 kts | 258° |
| 2026-05-03 20:58 | 45.31244 | -75.84671 | 39808 ft | 455 kts | 258° |
| 2026-05-03 20:58 | 45.29917 | -75.93436 | 39812 ft | 455 kts | 258° |
| 2026-05-03 20:59 | 45.28576 | -76.02239 | 39828 ft | 455 kts | 258° |
| 2026-05-03 20:59 | 45.27237 | -76.10990 | 39824 ft | 455 kts | 258° |
| 2026-05-03 21:00 | 45.26108 | -76.18321 | 39829 ft | 455 kts | 258° |
| 2026-05-03 21:00 | 45.23837 | -76.28273 | 39831 ft | 455 kts | 248° |
| 2026-05-03 21:01 | 45.21340 | -76.36461 | 39832 ft | 455 kts | 247° |
| 2026-05-03 21:01 | 45.18808 | -76.44719 | 39835 ft | 456 kts | 248° |
| 2026-05-03 21:02 | 45.16330 | -76.52964 | 39829 ft | 455 kts | 248° |
| 2026-05-03 21:02 | 45.13856 | -76.61243 | 39840 ft | 455 kts | 248° |
| 2026-05-03 21:03 | 45.11397 | -76.69455 | 39839 ft | 455 kts | 248° |
| 2026-05-03 21:03 | 45.08917 | -76.77706 | 39840 ft | 455 kts | 248° |
| 2026-05-03 21:04 | 45.06432 | -76.85944 | 39841 ft | 455 kts | 248° |
| 2026-05-03 21:04 | 45.03956 | -76.94123 | 39846 ft | 454 kts | 248° |
| 2026-05-03 21:05 | 45.01456 | -77.02355 | 39847 ft | 453 kts | 248° |
| 2026-05-03 21:05 | 44.98975 | -77.10501 | 39846 ft | 453 kts | 248° |
| 2026-05-03 21:06 | 44.96493 | -77.18623 | 39852 ft | 452 kts | 248° |
| 2026-05-03 21:06 | 44.95254 | -77.22666 | 39658 ft | 439 kts | 248° |
| 2026-05-03 21:06 | 44.94042 | -77.26612 | 39436 ft | 434 kts | 248° |
| 2026-05-03 21:07 | 44.92851 | -77.30475 | 39053 ft | 433 kts | 247° |
| 2026-05-03 21:07 | 44.91633 | -77.34375 | 38554 ft | 433 kts | 248° |
| 2026-05-03 21:07 | 44.90413 | -77.38269 | 37939 ft | 431 kts | 248° |
| 2026-05-03 21:07 | 44.89218 | -77.42095 | 37397 ft | 430 kts | 248° |
| 2026-05-03 21:08 | 44.88012 | -77.45968 | 36852 ft | 429 kts | 248° |
| 2026-05-03 21:08 | 44.86812 | -77.49832 | 36342 ft | 428 kts | 248° |
| 2026-05-03 21:08 | 44.85631 | -77.53636 | 35846 ft | 427 kts | 248° |
| 2026-05-03 21:08 | 44.84436 | -77.57483 | 35330 ft | 426 kts | 248° |
| 2026-05-03 21:09 | 44.83250 | -77.61298 | 34841 ft | 425 kts | 248° |
| 2026-05-03 21:09 | 44.82060 | -77.65118 | 34316 ft | 424 kts | 248° |
| 2026-05-03 21:09 | 44.80891 | -77.68865 | 33761 ft | 422 kts | 248° |
| 2026-05-03 21:09 | 44.79705 | -77.72662 | 33157 ft | 422 kts | 249° |
| 2026-05-03 21:10 | 44.78519 | -77.76454 | 32584 ft | 424 kts | 249° |
| 2026-05-03 21:10 | 44.77312 | -77.80254 | 32034 ft | 425 kts | 247° |
| 2026-05-03 21:10 | 44.75969 | -77.83940 | 31477 ft | 428 kts | 244° |
| 2026-05-03 21:10 | 44.74500 | -77.87607 | 30911 ft | 430 kts | 243° |
| 2026-05-03 21:11 | 44.72979 | -77.91269 | 30329 ft | 431 kts | 243° |
| 2026-05-03 21:11 | 44.71472 | -77.94869 | 29737 ft | 433 kts | 243° |
| 2026-05-03 21:11 | 44.69940 | -77.98536 | 29090 ft | 434 kts | 244° |
| 2026-05-03 21:11 | 44.68405 | -78.02228 | 28483 ft | 435 kts | 244° |
| 2026-05-03 21:12 | 44.66901 | -78.05858 | 27917 ft | 435 kts | 244° |
| 2026-05-03 21:12 | 44.65373 | -78.09553 | 27325 ft | 435 kts | 244° |
| 2026-05-03 21:12 | 44.63868 | -78.13188 | 26746 ft | 431 kts | 244° |
| 2026-05-03 21:12 | 44.62363 | -78.16822 | 26152 ft | 427 kts | 244° |
| 2026-05-03 21:13 | 44.60875 | -78.20411 | 25576 ft | 423 kts | 244° |
| 2026-05-03 21:13 | 44.59398 | -78.23968 | 25000 ft | 419 kts | 244° |
| 2026-05-03 21:13 | 44.57953 | -78.27445 | 24419 ft | 414 kts | 244° |
| 2026-05-03 21:13 | 44.56494 | -78.30934 | 23855 ft | 410 kts | 244° |
| 2026-05-03 21:14 | 44.55052 | -78.34370 | 23218 ft | 405 kts | 244° |
| 2026-05-03 21:14 | 44.53643 | -78.37727 | 22569 ft | 401 kts | 244° |
| 2026-05-03 21:14 | 44.52235 | -78.41088 | 21963 ft | 397 kts | 244° |
| 2026-05-03 21:14 | 44.50835 | -78.44429 | 21373 ft | 394 kts | 244° |
| 2026-05-03 21:15 | 44.49470 | -78.47686 | 20802 ft | 391 kts | 244° |
| 2026-05-03 21:15 | 44.48094 | -78.50969 | 20237 ft | 388 kts | 244° |
| 2026-05-03 21:15 | 44.46735 | -78.54206 | 19663 ft | 384 kts | 244° |
| 2026-05-03 21:15 | 44.45379 | -78.57431 | 19130 ft | 381 kts | 244° |
| 2026-05-03 21:16 | 44.44035 | -78.60628 | 18655 ft | 379 kts | 244° |
| 2026-05-03 21:16 | 44.42712 | -78.63769 | 18132 ft | 376 kts | 244° |
| 2026-05-03 21:16 | 44.41379 | -78.66931 | 17531 ft | 375 kts | 244° |
| 2026-05-03 21:16 | 44.40061 | -78.70054 | 16969 ft | 370 kts | 244° |
| 2026-05-03 21:17 | 44.38759 | -78.73134 | 16431 ft | 365 kts | 244° |
| 2026-05-03 21:17 | 44.37903 | -78.75155 | 16078 ft | 362 kts | 244° |
| 2026-05-03 21:17 | 44.36219 | -78.79131 | 15395 ft | 356 kts | 244° |
| 2026-05-03 21:17 | 44.34959 | -78.82101 | 14886 ft | 352 kts | 244° |
| 2026-05-03 21:18 | 44.33715 | -78.85034 | 14383 ft | 348 kts | 244° |
| 2026-05-03 21:18 | 44.32500 | -78.87895 | 13894 ft | 344 kts | 244° |
| 2026-05-03 21:18 | 44.31237 | -78.90711 | 13582 ft | 342 kts | 237° |
| 2026-05-03 21:18 | 44.29478 | -78.92985 | 13583 ft | 352 kts | 220° |
| 2026-05-03 21:19 | 44.27345 | -78.94746 | 13280 ft | 357 kts | 214° |
| 2026-05-03 21:19 | 44.25165 | -78.96375 | 12808 ft | 354 kts | 214° |
| 2026-05-03 21:19 | 44.23014 | -78.98050 | 12360 ft | 350 kts | 216° |
| 2026-05-03 21:19 | 44.20954 | -78.99761 | 11921 ft | 346 kts | 217° |
| 2026-05-03 21:20 | 44.18914 | -79.01546 | 11486 ft | 343 kts | 218° |
| 2026-05-03 21:20 | 44.16915 | -79.03355 | 11121 ft | 341 kts | 219° |
| 2026-05-03 21:20 | 44.14945 | -79.05170 | 10945 ft | 329 kts | 219° |
| 2026-05-03 21:20 | 44.13185 | -79.06786 | 10838 ft | 287 kts | 220° |
| 2026-05-03 21:21 | 44.11582 | -79.08269 | 10735 ft | 271 kts | 221° |
| 2026-05-03 21:21 | 44.10043 | -79.09716 | 10632 ft | 265 kts | 221° |
| 2026-05-03 21:21 | 44.08513 | -79.11161 | 10535 ft | 265 kts | 222° |
| 2026-05-03 21:21 | 44.06985 | -79.12605 | 10436 ft | 265 kts | 222° |
| 2026-05-03 21:22 | 44.05472 | -79.14033 | 10196 ft | 265 kts | 221° |
| 2026-05-03 21:22 | 44.03943 | -79.15471 | 9790 ft | 264 kts | 222° |
| 2026-05-03 21:22 | 44.02419 | -79.16902 | 9289 ft | 262 kts | 221° |
| 2026-05-03 21:22 | 44.00914 | -79.18313 | 8811 ft | 259 kts | 221° |
| 2026-05-03 21:23 | 43.99423 | -79.19711 | 8391 ft | 257 kts | 221° |
| 2026-05-03 21:23 | 43.97959 | -79.21083 | 7958 ft | 255 kts | 221° |
| 2026-05-03 21:23 | 43.96489 | -79.22457 | 7557 ft | 253 kts | 221° |
| 2026-05-03 21:23 | 43.95034 | -79.23818 | 7176 ft | 251 kts | 220° |
| 2026-05-03 21:24 | 43.93600 | -79.25159 | 6804 ft | 249 kts | 220° |
| 2026-05-03 21:24 | 43.92165 | -79.26498 | 6424 ft | 247 kts | 220° |
| 2026-05-03 21:24 | 43.90742 | -79.27826 | 6026 ft | 245 kts | 220° |
| 2026-05-03 21:24 | 43.89352 | -79.29124 | 5654 ft | 243 kts | 220° |
| 2026-05-03 21:25 | 43.87960 | -79.30424 | 5312 ft | 238 kts | 222° |
| 2026-05-03 21:25 | 43.86698 | -79.31892 | 5080 ft | 235 kts | 229° |
| 2026-05-03 21:25 | 43.85525 | -79.33476 | 5034 ft | 235 kts | 231° |
| 2026-05-03 21:25 | 43.84767 | -79.34547 | 5024 ft | 234 kts | 231° |
| 2026-05-03 21:26 | 43.83330 | -79.36587 | 5004 ft | 202 kts | 232° |
| 2026-05-03 21:26 | 43.82427 | -79.37867 | 4866 ft | 177 kts | 233° |
| 2026-05-03 21:26 | 43.81606 | -79.39049 | 4655 ft | 162 kts | 233° |
| 2026-05-03 21:26 | 43.81108 | -79.39767 | 4489 ft | 151 kts | 234° |
| 2026-05-03 21:27 | 43.80216 | -79.41058 | 4216 ft | 132 kts | 235° |
| 2026-05-03 21:27 | 43.79792 | -79.41681 | 4106 ft | 129 kts | 235° |
| 2026-05-03 21:27 | 43.78990 | -79.42856 | 3889 ft | 126 kts | 236° |
| 2026-05-03 21:27 | 43.78390 | -79.43740 | 3733 ft | 126 kts | 236° |
| 2026-05-03 21:28 | 43.77983 | -79.44338 | 3634 ft | 127 kts | 236° |
| 2026-05-03 21:28 | 43.77390 | -79.45210 | 3467 ft | 125 kts | 236° |
| 2026-05-03 21:28 | 43.76790 | -79.46092 | 3301 ft | 125 kts | 235° |
| 2026-05-03 21:28 | 43.76202 | -79.46958 | 3139 ft | 124 kts | 235° |
| 2026-05-03 21:29 | 43.75611 | -79.47827 | 2956 ft | 123 kts | 235° |
| 2026-05-03 21:29 | 43.75018 | -79.48699 | 2805 ft | 124 kts | 235° |
| 2026-05-03 21:29 | 43.74430 | -79.49565 | 2634 ft | 125 kts | 234° |
| 2026-05-03 21:29 | 43.73837 | -79.50437 | 2479 ft | 123 kts | 233° |
| 2026-05-03 21:30 | 43.73256 | -79.51292 | 2285 ft | 124 kts | 232° |
| 2026-05-03 21:30 | 43.72668 | -79.52154 | 2101 ft | 125 kts | 232° |
| 2026-05-03 21:30 | 43.72072 | -79.53030 | 1924 ft | 125 kts | 232° |
| 2026-05-03 21:30 | 43.71472 | -79.53913 | 1767 ft | 127 kts | 232° |
| 2026-05-03 21:31 | 43.70865 | -79.54798 | 1613 ft | 128 kts | 232° |
| 2026-05-03 21:31 | 43.70255 | -79.55718 | 1429 ft | 130 kts | 232° |
| 2026-05-03 21:31 | 43.69639 | -79.56622 | 1241 ft | 129 kts | 232° |
| 2026-05-03 21:31 | 43.69015 | -79.57509 | 1003 ft | 129 kts | 232° |
| 2026-05-03 21:32 | 43.68391 | -79.58404 | 870 ft | 133 kts | 231° |
| 2026-05-03 21:32 | 43.67762 | -79.59321 | 657 ft | 129 kts | 231° |
| 2026-05-03 21:32 | 43.67165 | -79.60243 | 576 ft | 122 kts | 232° |
| 2026-05-03 21:32 | 43.66718 | -79.60916 | 573 ft | 68 kts | 223° |
| 2026-05-03 21:33 | 43.66493 | -79.61311 | 574 ft | 43 kts | 231° |
| 2026-05-03 21:33 | 43.66386 | -79.61585 | 573 ft | 18 kts | 255° |
| 2026-05-03 21:33 | 43.66400 | -79.61715 | 570 ft | 11 kts | 308° |
| 2026-05-03 21:33 | 43.66461 | -79.61805 | 576 ft | 17 kts | 314° |
| 2026-05-03 21:34 | 43.66556 | -79.61928 | 572 ft | 19 kts | 316° |
| 2026-05-03 21:34 | 43.66632 | -79.62010 | 577 ft | 6 kts | 350° |
| 2026-05-03 21:34 | 43.66660 | -79.62003 | 576 ft | 3 kts | 13° |
| 2026-05-03 21:34 | 43.66682 | -79.61986 | 574 ft | 6 kts | 33° |
| 2026-05-03 21:35 | 43.66734 | -79.61925 | 579 ft | 14 kts | 42° |
| 2026-05-03 21:35 | 43.66824 | -79.61813 | 575 ft | 19 kts | 41° |
| 2026-05-03 21:35 | 43.66931 | -79.61677 | 578 ft | 24 kts | 43° |
| 2026-05-03 21:35 | 43.67061 | -79.61509 | 581 ft | 25 kts | 43° |
| 2026-05-03 21:36 | 43.67183 | -79.61350 | 578 ft | 22 kts | 48° |
| 2026-05-03 21:36 | 43.67267 | -79.61226 | 576 ft | 9 kts | 21° |
| 2026-05-03 21:36 | 43.67322 | -79.61256 | 570 ft | 13 kts | 317° |
| 2026-05-03 21:36 | 43.67370 | -79.61358 | 578 ft | 12 kts | 305° |
| 2026-05-03 21:37 | 43.67417 | -79.61440 | 577 ft | 10 kts | 309° |
| 2026-05-03 21:37 | 43.67457 | -79.61498 | 573 ft | 7 kts | 316° |
| 2026-05-03 21:37 | 43.67490 | -79.61540 | 576 ft | 6 kts | 316° |
| 2026-05-03 21:37 | 43.67517 | -79.61576 | 576 ft | 5 kts | 316° |
| 2026-05-03 21:38 | 43.67557 | -79.61628 | 573 ft | 10 kts | 316° |
| 2026-05-03 21:38 | 43.67621 | -79.61711 | 578 ft | 15 kts | 317° |
| 2026-05-03 21:38 | 43.67711 | -79.61827 | 576 ft | 20 kts | 315° |
| 2026-05-03 21:38 | 43.67806 | -79.61953 | 577 ft | 18 kts | 316° |
| 2026-05-03 21:39 | 43.67852 | -79.62012 | 575 ft | 0 kts | 316° |
| 2026-05-03 21:39 | 43.67871 | -79.62035 | 574 ft | 9 kts | 323° |
| 2026-05-03 21:40 | 43.67950 | -79.62036 | 576 ft | 13 kts | 29° |
| 2026-05-03 21:40 | 43.68018 | -79.62012 | 573 ft | 9 kts | 346° |
| 2026-05-03 21:40 | 43.68080 | -79.62068 | 572 ft | 12 kts | 320° |
| 2026-05-03 21:40 | 43.68135 | -79.62139 | 571 ft | 9 kts | 315° |
| 2026-05-03 21:41 | 43.68163 | -79.62164 | 576 ft | 1 kts | 349° |
| 2026-05-03 21:41 | 43.68175 | -79.62155 | 575 ft | 3 kts | 31° |
| 2026-05-03 21:41 | 43.68187 | -79.62137 | 572 ft | 2 kts | 50° |
| 2026-05-03 21:41 | 43.68194 | -79.62124 | 573 ft | 1 kts | 54° |
| 2026-05-03 21:42 | 43.68197 | -79.62116 | 573 ft | 1 kts | 59° |
| 2026-05-03 21:42 | 43.68200 | -79.62107 | 574 ft | 1 kts | 63° |
| 2026-05-03 21:42 | 43.68204 | -79.62097 | 574 ft | 1 kts | 64° |
| 2026-05-03 21:42 | 43.68206 | -79.62091 | 573 ft | 0 kts | 65° |
| 2026-05-03 21:43 | 43.68207 | -79.62085 | 575 ft | 0 kts | 66° |